createdAt,value
2019-01-05T00:00:56.760Z,8.30
2019-01-05T00:03:42.700Z,7.43
2019-01-05T00:06:28.644Z,8.57
2019-01-05T00:09:01.513Z,8.23
2019-01-05T00:11:34.372Z,9.57
2019-01-05T00:14:13.231Z,8.80
2019-01-05T00:16:48.788Z,8.73
2019-01-05T00:19:21.629Z,11.70
2019-01-05T00:21:54.176Z,11.63
2019-01-05T00:24:42.344Z,14.43
2019-01-05T00:27:27.157Z,15.83
2019-01-05T00:29:59.636Z,16.90
2019-01-05T00:32:41.672Z,18.93
2019-01-05T00:35:23.673Z,20.43
2019-01-05T00:37:53.632Z,25.53
2019-01-05T00:40:39.739Z,26.27
2019-01-05T00:43:24.999Z,27.37
2019-01-05T00:46:06.999Z,30.53
2019-01-05T00:48:55.240Z,31.30
2019-01-05T00:51:41.059Z,33.07
2019-01-05T00:54:10.963Z,38.97
2019-01-05T00:56:50.064Z,37.53
2019-01-05T00:59:35.228Z,44.57
2019-01-05T01:02:21.312Z,44.47
2019-01-05T01:04:56.896Z,47.03
2019-01-05T01:07:29.719Z,46.67
2019-01-05T01:10:17.151Z,49.43
2019-01-05T01:13:03.396Z,53.07
2019-01-05T01:15:39.228Z,55.53
2019-01-05T01:18:24.135Z,55.40
2019-01-05T01:21:02.733Z,60.83
2019-01-05T01:23:32.595Z,63.70
2019-01-05T01:26:18.510Z,64.43
2019-01-05T01:29:04.740Z,66.53
2019-01-05T01:31:43.892Z,71.37
2019-01-05T01:34:16.478Z,72.07
2019-01-05T01:36:46.367Z,75.03
2019-01-05T01:39:18.243Z,75.70
2019-01-05T01:41:48.208Z,79.23
2019-01-05T01:44:24.138Z,81.80
2019-01-05T01:46:56.820Z,81.20
2019-01-05T01:49:43.419Z,84.80
2019-01-05T01:52:29.292Z,84.93
2019-01-05T01:55:14.283Z,87.90
2019-01-05T01:57:44.162Z,90.87
2019-01-05T02:00:19.954Z,93.83
2019-01-05T02:02:53.060Z,96.20
2019-01-05T02:05:22.932Z,97.73
2019-01-05T02:07:55.931Z,102.33
2019-01-05T02:10:35.104Z,99.37
2019-01-05T02:13:10.697Z,101.23
2019-01-05T02:15:40.588Z,102.90
2019-01-05T02:18:22.805Z,104.30
2019-01-05T02:20:58.646Z,101.90
2019-01-05T02:24:04.711Z,106.10
2019-01-05T02:26:49.241Z,111.00
2019-01-05T02:29:43.236Z,115.27
2019-01-05T02:32:25.281Z,115.70
2019-01-05T02:35:18.956Z,115.23
2019-01-05T02:38:09.655Z,118.77
2019-01-05T02:41:00.234Z,119.77
2019-01-05T02:44:21.329Z,121.83
2019-01-05T02:47:31.657Z,121.30
2019-01-05T02:50:22.319Z,127.97
2019-01-05T02:53:20.577Z,127.90
2019-01-05T02:56:12.760Z,131.20
2019-01-05T02:59:03.946Z,132.83
2019-01-05T03:01:53.587Z,133.47
2019-01-05T03:04:42.936Z,133.20
2019-01-05T03:07:30.249Z,135.00
2019-01-05T03:10:21.107Z,135.50
2019-01-05T03:13:25.709Z,135.10
2019-01-05T03:16:16.459Z,135.43
2019-01-05T03:19:20.925Z,134.63
2019-01-05T03:22:30.868Z,136.00
2019-01-05T03:25:27.961Z,139.17
2019-01-05T03:28:26.152Z,136.30
2019-01-05T03:31:16.962Z,135.17
2019-01-05T03:34:05.848Z,136.63
2019-01-05T03:36:50.887Z,135.30
2019-01-05T03:40:07.793Z,133.30
2019-01-05T03:42:52.837Z,130.73
2019-01-05T03:46:12.456Z,131.50
2019-01-05T03:49:15.348Z,131.10
2019-01-05T03:52:12.851Z,128.77
2019-01-05T03:55:21.861Z,128.33
2019-01-05T03:58:28.633Z,129.07
2019-01-05T04:01:21.368Z,126.97
2019-01-05T04:04:19.489Z,124.37
2019-01-05T04:07:11.672Z,124.50
2019-01-05T04:10:17.444Z,120.83
2019-01-05T04:13:23.119Z,117.77
2019-01-05T04:16:19.668Z,115.37
2019-01-05T04:19:43.507Z,116.13
2019-01-05T04:22:28.679Z,114.80
2019-01-05T04:25:25.331Z,114.20
2019-01-05T04:28:14.996Z,112.17
2019-01-05T04:31:28.241Z,107.63
2019-01-05T04:34:26.549Z,106.10
2019-01-05T04:37:35.008Z,105.33
2019-01-05T04:40:36.643Z,103.53
2019-01-05T04:43:21.483Z,101.43
2019-01-05T04:46:19.887Z,99.27
2019-01-05T04:49:32.744Z,96.63
2019-01-05T04:52:20.420Z,93.90
2019-01-05T04:55:08.192Z,95.67
2019-01-05T04:57:53.141Z,91.83
2019-01-05T05:00:49.203Z,89.13
2019-01-05T05:03:33.957Z,90.07
2019-01-05T05:06:18.848Z,87.97
2019-01-05T05:09:32.157Z,85.40
2019-01-05T05:12:35.200Z,83.57
2019-01-05T05:15:50.283Z,79.47
2019-01-05T05:18:26.153Z,79.57
2019-01-05T05:21:19.782Z,78.00
2019-01-05T05:24:09.618Z,76.63
2019-01-05T05:26:57.301Z,75.73
2019-01-05T05:29:52.663Z,73.13
2019-01-05T05:33:00.368Z,72.60
2019-01-05T05:35:36.470Z,70.30
2019-01-05T05:38:57.156Z,68.10
2019-01-05T05:42:13.706Z,65.57
2019-01-05T05:45:19.625Z,65.07
2019-01-05T05:48:13.741Z,64.07
2019-01-05T05:51:14.622Z,63.37
2019-01-05T05:53:56.560Z,61.00
2019-01-05T05:56:44.524Z,59.20
2019-01-05T05:59:29.332Z,58.63
2019-01-05T06:02:14.461Z,57.63
2019-01-05T06:05:15.693Z,56.13
2019-01-05T06:08:14.448Z,54.80
2019-01-05T06:11:27.806Z,52.70
2019-01-05T06:14:37.768Z,51.07
2019-01-05T06:17:40.131Z,52.03
2019-01-05T06:20:21.738Z,49.20
2019-01-05T06:23:35.050Z,48.60
2019-01-05T06:26:42.458Z,46.83
2019-01-05T06:29:40.933Z,45.90
2019-01-05T06:32:41.780Z,45.20
2019-01-05T06:35:23.854Z,44.30
2019-01-05T06:38:05.366Z,43.10
2019-01-05T06:41:12.783Z,42.07
2019-01-05T06:43:51.480Z,40.30
2019-01-05T06:46:33.214Z,39.90
2019-01-05T06:49:34.600Z,37.33
2019-01-05T06:52:51.118Z,37.03
2019-01-05T06:55:58.227Z,36.23
2019-01-05T06:58:59.586Z,34.83
2019-01-05T07:02:20.717Z,33.80
2019-01-05T07:05:12.897Z,33.80
2019-01-05T07:08:04.812Z,32.57
2019-01-05T07:11:12.514Z,31.80
2019-01-05T07:13:51.180Z,30.60
2019-01-05T07:16:42.104Z,29.30
2019-01-05T07:19:45.216Z,28.53
2019-01-05T07:23:05.069Z,27.83
2019-01-05T07:26:09.293Z,26.53
2019-01-05T07:29:07.815Z,26.57
2019-01-05T07:32:30.083Z,24.63
2019-01-05T07:35:20.412Z,23.47
2019-01-05T07:38:41.260Z,23.63
2019-01-05T07:41:23.239Z,22.53
2019-01-05T07:44:26.496Z,21.87
2019-01-05T07:47:40.910Z,21.30
2019-01-05T07:51:00.354Z,20.70
2019-01-05T07:54:18.171Z,20.20
2019-01-05T07:57:31.859Z,19.17
2019-01-05T08:00:19.804Z,18.57
2019-01-05T08:05:56.141Z,16.47
2019-01-05T08:08:55.909Z,17.00
2019-01-05T08:11:55.769Z,16.17
2019-01-05T08:14:55.301Z,15.70
2019-01-05T08:17:55.485Z,15.17
2019-01-05T08:20:40.718Z,14.20
2019-01-05T08:23:40.336Z,13.70
2019-01-05T08:26:39.773Z,13.40
2019-01-05T08:29:21.864Z,13.83
2019-01-05T08:32:04.980Z,12.00
2019-01-05T08:34:49.736Z,11.90
2019-01-05T08:37:49.260Z,11.03
2019-01-05T08:40:49.204Z,10.93
2019-01-05T08:43:48.953Z,10.37
2019-01-05T08:46:48.537Z,10.30
2019-01-05T08:49:33.348Z,9.87
2019-01-05T08:52:32.968Z,9.60
2019-01-05T08:55:18.321Z,9.20
2019-01-05T09:01:10.014Z,7.90
2019-01-05T09:03:52.602Z,7.87
2019-01-05T09:06:52.395Z,7.87
2019-01-05T09:09:34.294Z,7.43
2019-01-05T09:12:34.785Z,7.30
2019-01-05T09:15:34.270Z,6.67
2019-01-05T09:18:33.918Z,6.33
2019-01-05T09:21:18.780Z,6.20
2019-01-05T09:24:03.790Z,5.70
2019-01-05T09:27:03.693Z,5.47
2019-01-05T09:30:03.111Z,5.27
2019-01-05T09:33:03.015Z,5.17
2019-01-05T09:36:02.464Z,5.30
2019-01-05T09:38:44.757Z,4.83
2019-01-05T09:41:44.386Z,6.63
2019-01-05T09:44:44.133Z,5.87
2019-01-05T09:50:19.564Z,5.07
2019-01-05T09:53:19.300Z,6.73
2019-01-05T09:59:14.720Z,16.00
2019-01-05T10:02:14.494Z,18.10
2019-01-05T10:04:56.668Z,17.00
2019-01-05T10:07:38.600Z,8.37
2019-01-05T10:10:39.220Z,16.00
2019-01-05T10:13:39.252Z,17.90
2019-01-05T10:16:38.749Z,23.60
2019-01-05T10:19:21.084Z,20.90
2019-01-05T10:22:20.492Z,16.37
2019-01-05T10:25:20.190Z,23.57
2019-01-05T10:28:05.468Z,19.57
2019-01-05T10:30:48.003Z,21.57
2019-01-05T10:36:26.736Z,34.80
2019-01-05T10:39:26.411Z,17.83
2019-01-05T10:42:12.273Z,22.60
2019-01-05T10:45:12.864Z,26.33
2019-01-05T10:48:13.165Z,23.57
2019-01-05T10:50:57.943Z,28.87
2019-01-05T10:56:53.106Z,33.40
2019-01-05T10:59:52.785Z,23.15
2019-01-05T11:02:34.843Z,27.55
2019-01-05T11:05:16.876Z,30.72
2019-01-05T11:07:59.145Z,25.87
2019-01-05T11:10:59.475Z,24.37
2019-01-05T11:13:44.945Z,24.37
2019-01-05T11:16:29.773Z,24.77
2019-01-05T11:19:11.696Z,25.10
2019-01-05T11:21:53.968Z,32.55
2019-01-05T11:24:54.153Z,24.85
2019-01-05T11:27:53.843Z,26.85
2019-01-05T11:30:53.644Z,26.05
2019-01-05T11:33:53.329Z,27.60
2019-01-05T11:36:53.238Z,26.05
2019-01-05T11:39:39.122Z,28.73
2019-01-05T11:42:39.361Z,43.20
2019-01-05T11:45:39.844Z,26.00
2019-01-05T11:48:39.645Z,22.93
2019-01-05T11:51:39.373Z,25.97
2019-01-05T11:57:14.966Z,27.60
2019-01-05T12:00:14.481Z,24.25
2019-01-05T12:03:13.959Z,32.00
2019-01-05T12:06:14.428Z,21.20
2019-01-05T12:09:40.800Z,22.25
2019-01-05T12:12:49.318Z,20.00
2019-01-05T12:16:15.821Z,21.85
2019-01-05T12:19:24.330Z,25.23
2019-01-05T12:22:50.624Z,21.75
2019-01-05T12:25:59.492Z,27.97
2019-01-05T12:29:25.846Z,20.85
2019-01-05T12:32:52.153Z,20.97
2019-01-05T12:36:18.537Z,22.90
2019-01-05T12:39:27.040Z,33.50
2019-01-05T12:42:53.352Z,17.62
2019-01-05T12:46:01.818Z,22.65
2019-01-05T12:49:10.321Z,18.03
2019-01-05T12:52:19.322Z,19.40
2019-01-05T12:55:19.001Z,24.80
2019-01-05T12:58:01.125Z,20.63
2019-01-05T13:00:46.672Z,16.70
2019-01-05T13:06:36.361Z,13.37
2019-01-05T13:13:10.794Z,17.00
2019-01-05T13:16:20.157Z,15.20
2019-01-05T13:19:29.125Z,14.47
2019-01-05T13:22:55.431Z,13.57
2019-01-05T13:26:21.705Z,14.73
2019-01-05T13:29:30.461Z,18.30
2019-01-05T13:32:56.762Z,14.17
2019-01-05T13:35:56.253Z,13.27
2019-01-05T13:38:56.366Z,14.77
2019-01-05T13:41:42.096Z,13.00
2019-01-05T13:44:41.505Z,18.63
2019-01-05T13:47:24.024Z,19.83
2019-01-05T13:50:23.501Z,17.40
2019-01-05T13:53:08.693Z,14.07
2019-01-05T13:56:08.833Z,15.40
2019-01-05T13:58:51.465Z,22.87
2019-01-05T14:01:50.953Z,34.63
2019-01-05T14:07:38.048Z,20.90
2019-01-05T14:13:31.558Z,24.27
2019-01-05T14:16:31.126Z,24.70
2019-01-05T14:19:30.949Z,24.77
2019-01-05T14:22:30.975Z,22.75
2019-01-05T14:25:13.537Z,23.62
2019-01-05T14:28:13.145Z,33.48
2019-01-05T14:33:51.687Z,24.50
2019-01-05T14:36:39.202Z,26.27
2019-01-05T14:39:46.080Z,30.23
2019-01-05T14:42:53.027Z,22.48
2019-01-05T14:45:59.905Z,23.27
2019-01-05T14:49:07.102Z,23.80
2019-01-05T14:52:14.413Z,19.52
2019-01-05T14:55:21.549Z,25.80
2019-01-05T14:58:28.404Z,28.73
2019-01-05T15:01:35.289Z,31.85
2019-01-05T15:04:42.187Z,26.70
2019-01-05T15:10:57.889Z,36.35
2019-01-05T15:13:57.382Z,36.50
2019-01-05T15:16:57.561Z,28.05
2019-01-05T15:19:57.310Z,22.00
2019-01-05T15:25:22.308Z,29.40
2019-01-05T15:28:04.365Z,28.40
2019-01-05T15:31:04.041Z,31.82
2019-01-05T15:33:48.912Z,34.97
2019-01-05T15:36:30.717Z,61.98
2019-01-05T15:42:13.348Z,59.50
2019-01-05T15:45:13.128Z,44.25
2019-01-05T15:47:58.383Z,40.10
2019-01-05T15:50:41.239Z,41.53
2019-01-05T15:53:41.738Z,43.07
2019-01-05T15:56:41.552Z,35.77
2019-01-05T15:59:41.141Z,41.13
2019-01-05T16:02:28.594Z,44.30
2019-01-05T16:05:35.475Z,62.90
2019-01-05T16:08:42.320Z,42.43
2019-01-05T16:11:50.480Z,49.97
2019-01-05T16:14:57.356Z,40.63
2019-01-05T16:21:12.640Z,39.83
2019-01-05T16:24:19.524Z,41.10
2019-01-05T16:27:26.452Z,43.63
2019-01-05T16:33:41.724Z,43.43
2019-01-05T16:36:48.601Z,77.07
2019-01-05T16:42:50.261Z,69.03
2019-01-05T16:45:57.526Z,53.50
2019-01-05T16:48:57.377Z,61.00
2019-01-05T16:51:43.020Z,44.33
2019-01-05T16:54:42.929Z,39.50
2019-01-05T16:57:27.467Z,47.83
2019-01-05T17:00:27.493Z,39.90
2019-01-05T17:03:27.151Z,55.20
2019-01-05T17:06:12.520Z,42.70
2019-01-05T17:08:57.691Z,63.40
2019-01-05T17:11:57.557Z,47.03
2019-01-05T17:14:57.481Z,40.50
2019-01-05T17:17:57.526Z,46.20
2019-01-05T17:23:39.760Z,38.87
2019-01-05T17:26:46.635Z,35.90
2019-01-05T17:29:53.500Z,56.40
2019-01-05T17:39:39.127Z,40.30
2019-01-05T17:42:46.061Z,35.60
2019-01-05T17:45:52.919Z,49.93
2019-01-05T17:48:59.875Z,50.67
2019-01-05T17:52:06.784Z,279.23
2019-01-05T17:55:06.861Z,53.53
2019-01-05T17:58:06.386Z,53.00
2019-01-05T18:01:06.086Z,60.10
2019-01-05T18:03:48.276Z,39.23
2019-01-05T18:10:06.351Z,41.50
2019-01-05T18:12:48.631Z,60.10
2019-01-05T18:15:34.746Z,42.80
2019-01-05T18:18:34.811Z,46.50
2019-01-05T18:21:19.363Z,46.77
2019-01-05T18:26:56.353Z,36.30
2019-01-05T18:36:07.249Z,44.47
2019-01-05T18:38:49.753Z,58.13
2019-01-05T18:41:50.063Z,38.43
2019-01-05T18:44:50.350Z,33.97
2019-01-05T18:47:50.731Z,49.70
2019-01-05T18:50:36.200Z,55.07
2019-01-05T18:53:18.974Z,43.17
2019-01-05T18:56:18.859Z,44.47
2019-01-05T19:02:26.873Z,29.13
2019-01-05T19:05:26.979Z,28.77
2019-01-05T19:08:11.573Z,29.50
2019-01-05T19:11:11.248Z,35.67
2019-01-05T19:13:56.276Z,26.33
2019-01-05T19:16:41.245Z,27.23
2019-01-05T19:19:40.792Z,23.90
2019-01-05T19:25:32.864Z,18.77
2019-01-05T19:28:32.429Z,27.20
2019-01-05T19:34:40.184Z,23.17
2019-01-05T19:37:22.112Z,22.20
2019-01-05T19:40:07.093Z,19.20
2019-01-05T19:43:06.546Z,22.73
2019-01-05T19:46:06.466Z,18.50
2019-01-05T19:49:06.005Z,20.37
2019-01-05T19:52:05.465Z,22.53
2019-01-05T19:55:05.204Z,17.83
2019-01-05T19:58:04.729Z,18.83
2019-01-05T20:01:05.076Z,19.30
2019-01-05T20:03:47.533Z,17.20
2019-01-05T20:06:47.885Z,15.43
2019-01-05T20:09:48.092Z,13.40
2019-01-05T20:12:47.560Z,13.57
2019-01-05T20:15:47.716Z,13.70
2019-01-05T20:18:47.544Z,17.23
2019-01-05T20:21:29.704Z,13.47
2019-01-05T20:24:11.939Z,13.90
2019-01-05T20:26:57.188Z,13.83
2019-01-05T20:29:57.457Z,14.73
2019-01-05T20:33:00.556Z,11.70
2019-01-05T20:36:00.275Z,14.17
2019-01-05T20:38:45.396Z,13.43
2019-01-05T20:41:45.583Z,11.63
2019-01-05T20:47:52.057Z,11.00
2019-01-05T20:50:34.146Z,10.73
2019-01-05T20:53:33.642Z,12.07
2019-01-05T20:59:40.949Z,9.60
2019-01-05T21:02:22.809Z,11.13
2019-01-05T21:08:17.227Z,12.63
2019-01-05T21:11:16.660Z,8.23
2019-01-05T21:16:54.882Z,11.87
2019-01-05T21:22:46.936Z,14.60
2019-01-05T21:25:46.828Z,8.73
2019-01-05T21:28:29.038Z,11.97
2019-01-05T21:31:14.451Z,12.40
2019-01-05T21:40:15.409Z,11.53
2019-01-05T21:43:15.393Z,8.10
2019-01-05T21:46:00.625Z,11.97
2019-01-05T21:49:00.701Z,10.33
2019-01-05T21:52:00.957Z,10.40
2019-01-05T21:54:45.661Z,13.93
2019-01-05T21:57:27.744Z,10.03
2019-01-05T22:00:09.973Z,9.73
2019-01-05T22:02:52.056Z,9.37
2019-01-05T22:11:24.208Z,11.70
2019-01-05T22:14:09.353Z,9.53
2019-01-05T22:16:51.582Z,11.10
2019-01-05T22:19:33.408Z,9.10
2019-01-05T22:22:16.048Z,11.30
2019-01-05T22:24:58.818Z,10.13
2019-01-05T22:27:58.374Z,8.30
2019-01-05T22:30:40.372Z,7.80
2019-01-05T22:33:22.193Z,9.80
2019-01-05T22:36:04.065Z,9.07
2019-01-05T22:39:03.792Z,8.97
2019-01-05T22:41:45.688Z,7.73
2019-01-05T22:44:45.152Z,11.10
2019-01-05T22:47:51.993Z,9.87
2019-01-05T22:50:58.886Z,8.30
2019-01-05T22:54:05.718Z,9.90
2019-01-05T23:00:11.417Z,8.77
2019-01-05T23:03:18.280Z,7.23
2019-01-05T23:06:25.153Z,8.30
2019-01-05T23:12:40.444Z,8.23
2019-01-05T23:15:47.288Z,7.17
2019-01-05T23:18:54.149Z,7.77
2019-01-05T23:22:01.016Z,8.03
2019-01-05T23:39:29.337Z,8.23
2019-01-05T23:42:29.045Z,6.80
2019-01-05T23:45:29.085Z,9.90
2019-01-05T23:48:29.241Z,8.10
2019-01-05T23:51:14.848Z,9.47
2019-01-05T23:54:14.581Z,10.33
2019-01-05T23:57:14.388Z,12.27
